sensor_id;sensor_type;location;lat;lon;timestamp;temperature;humidity
19060;DHT22;9663;48.996;8.334;2023-08-20T00:01:02;26.60;59.20
19060;DHT22;9663;48.996;8.334;2023-08-20T00:03:29;26.60;59.40
19060;DHT22;9663;48.996;8.334;2023-08-20T00:05:56;26.50;59.20
19060;DHT22;9663;48.996;8.334;2023-08-20T00:08:21;26.50;59.30
19060;DHT22;9663;48.996;8.334;2023-08-20T00:10:47;26.50;59.30
19060;DHT22;9663;48.996;8.334;2023-08-20T00:13:13;26.50;59.40
19060;DHT22;9663;48.996;8.334;2023-08-20T00:15:39;26.50;59.40
19060;DHT22;9663;48.996;8.334;2023-08-20T00:18:05;26.40;59.50
19060;DHT22;9663;48.996;8.334;2023-08-20T00:20:31;26.40;59.50
19060;DHT22;9663;48.996;8.334;2023-08-20T00:22:59;26.40;59.60
19060;DHT22;9663;48.996;8.334;2023-08-20T00:25:25;26.40;59.70
19060;DHT22;9663;48.996;8.334;2023-08-20T00:27:51;26.40;59.80
19060;DHT22;9663;48.996;8.334;2023-08-20T00:30:16;26.30;59.70
19060;DHT22;9663;48.996;8.334;2023-08-20T00:32:42;26.30;59.80
19060;DHT22;9663;48.996;8.334;2023-08-20T00:35:08;26.30;60.20
19060;DHT22;9663;48.996;8.334;2023-08-20T00:37:34;26.20;59.80
19060;DHT22;9663;48.996;8.334;2023-08-20T00:40:00;26.20;59.80
19060;DHT22;9663;48.996;8.334;2023-08-20T00:42:29;26.20;59.90
19060;DHT22;9663;48.996;8.334;2023-08-20T00:44:55;26.10;59.70
19060;DHT22;9663;48.996;8.334;2023-08-20T00:47:21;26.10;59.80
19060;DHT22;9663;48.996;8.334;2023-08-20T00:49:47;26.10;60.00
19060;DHT22;9663;48.996;8.334;2023-08-20T00:52:14;26.00;60.00
19060;DHT22;9663;48.996;8.334;2023-08-20T00:54:45;26.00;60.10
19060;DHT22;9663;48.996;8.334;2023-08-20T00:57:14;26.00;60.50
19060;DHT22;9663;48.996;8.334;2023-08-20T00:59:40;25.90;60.20
19060;DHT22;9663;48.996;8.334;2023-08-20T01:02:07;25.90;60.40
19060;DHT22;9663;48.996;8.334;2023-08-20T01:04:33;25.90;60.50
19060;DHT22;9663;48.996;8.334;2023-08-20T01:07:39;25.90;60.50
19060;DHT22;9663;48.996;8.334;2023-08-20T01:12:47;25.80;61.20
19060;DHT22;9663;48.996;8.334;2023-08-20T01:15:13;25.80;60.50
19060;DHT22;9663;48.996;8.334;2023-08-20T01:17:43;25.80;60.50
19060;DHT22;9663;48.996;8.334;2023-08-20T01:20:12;25.70;60.90
19060;DHT22;9663;48.996;8.334;2023-08-20T01:28:23;25.70;61.00
19060;DHT22;9663;48.996;8.334;2023-08-20T01:30:51;25.70;61.40
19060;DHT22;9663;48.996;8.334;2023-08-20T01:33:19;25.70;61.10
19060;DHT22;9663;48.996;8.334;2023-08-20T01:35:45;25.70;61.20
19060;DHT22;9663;48.996;8.334;2023-08-20T01:38:11;25.60;61.20
19060;DHT22;9663;48.996;8.334;2023-08-20T01:40:37;25.60;61.20
19060;DHT22;9663;48.996;8.334;2023-08-20T01:43:02;25.60;61.20
19060;DHT22;9663;48.996;8.334;2023-08-20T01:45:28;25.60;61.20
19060;DHT22;9663;48.996;8.334;2023-08-20T01:47:54;25.60;61.20
19060;DHT22;9663;48.996;8.334;2023-08-20T01:50:19;25.50;61.10
19060;DHT22;9663;48.996;8.334;2023-08-20T01:52:45;25.50;61.20
19060;DHT22;9663;48.996;8.334;2023-08-20T01:55:11;25.50;61.30
19060;DHT22;9663;48.996;8.334;2023-08-20T01:57:37;25.40;61.20
19060;DHT22;9663;48.996;8.334;2023-08-20T02:00:03;25.40;61.30
19060;DHT22;9663;48.996;8.334;2023-08-20T02:02:30;25.30;61.40
19060;DHT22;9663;48.996;8.334;2023-08-20T02:04:57;25.30;61.40
19060;DHT22;9663;48.996;8.334;2023-08-20T02:07:22;25.30;61.50
19060;DHT22;9663;48.996;8.334;2023-08-20T02:09:48;25.30;61.60
19060;DHT22;9663;48.996;8.334;2023-08-20T02:12:14;25.20;61.60
19060;DHT22;9663;48.996;8.334;2023-08-20T02:14:40;25.20;61.70
19060;DHT22;9663;48.996;8.334;2023-08-20T02:17:07;25.20;61.90
19060;DHT22;9663;48.996;8.334;2023-08-20T02:19:33;25.10;62.00
19060;DHT22;9663;48.996;8.334;2023-08-20T02:21:59;25.10;62.00
19060;DHT22;9663;48.996;8.334;2023-08-20T02:24:25;25.10;62.10
19060;DHT22;9663;48.996;8.334;2023-08-20T02:26:50;25.10;62.30
19060;DHT22;9663;48.996;8.334;2023-08-20T02:29:16;25.10;62.30
19060;DHT22;9663;48.996;8.334;2023-08-20T02:31:42;25.20;62.30
19060;DHT22;9663;48.996;8.334;2023-08-20T02:34:08;25.10;62.30
19060;DHT22;9663;48.996;8.334;2023-08-20T02:36:33;25.10;62.10
19060;DHT22;9663;48.996;8.334;2023-08-20T02:38:59;25.10;62.10
19060;DHT22;9663;48.996;8.334;2023-08-20T02:41:24;25.10;62.10
19060;DHT22;9663;48.996;8.334;2023-08-20T02:43:50;25.10;62.10
19060;DHT22;9663;48.996;8.334;2023-08-20T02:46:16;25.00;62.00
19060;DHT22;9663;48.996;8.334;2023-08-20T02:48:41;25.00;62.00
19060;DHT22;9663;48.996;8.334;2023-08-20T02:51:07;24.90;62.00
19060;DHT22;9663;48.996;8.334;2023-08-20T02:53:33;24.90;62.00
19060;DHT22;9663;48.996;8.334;2023-08-20T02:55:59;24.80;62.00
19060;DHT22;9663;48.996;8.334;2023-08-20T02:58:24;24.80;62.20
19060;DHT22;9663;48.996;8.334;2023-08-20T03:00:50;24.70;62.30
19060;DHT22;9663;48.996;8.334;2023-08-20T03:03:16;24.70;62.40
19060;DHT22;9663;48.996;8.334;2023-08-20T03:05:42;24.60;62.50
19060;DHT22;9663;48.996;8.334;2023-08-20T03:08:08;24.60;62.70
19060;DHT22;9663;48.996;8.334;2023-08-20T03:10:35;24.60;62.80
19060;DHT22;9663;48.996;8.334;2023-08-20T03:13:03;24.60;63.00
19060;DHT22;9663;48.996;8.334;2023-08-20T03:15:29;24.50;63.10
19060;DHT22;9663;48.996;8.334;2023-08-20T03:17:55;24.60;63.00
19060;DHT22;9663;48.996;8.334;2023-08-20T03:20:22;24.50;63.00
19060;DHT22;9663;48.996;8.334;2023-08-20T03:22:48;24.50;63.10
19060;DHT22;9663;48.996;8.334;2023-08-20T03:25:13;24.50;63.10
19060;DHT22;9663;48.996;8.334;2023-08-20T03:27:39;24.50;63.20
19060;DHT22;9663;48.996;8.334;2023-08-20T03:30:06;24.50;63.20
19060;DHT22;9663;48.996;8.334;2023-08-20T03:32:32;24.50;63.30
19060;DHT22;9663;48.996;8.334;2023-08-20T03:34:58;24.50;63.30
19060;DHT22;9663;48.996;8.334;2023-08-20T03:37:25;24.50;63.30
19060;DHT22;9663;48.996;8.334;2023-08-20T03:39:51;24.50;63.30
19060;DHT22;9663;48.996;8.334;2023-08-20T03:42:17;24.40;63.30
19060;DHT22;9663;48.996;8.334;2023-08-20T03:44:43;24.40;63.40
19060;DHT22;9663;48.996;8.334;2023-08-20T03:47:09;24.40;63.40
19060;DHT22;9663;48.996;8.334;2023-08-20T03:49:34;24.30;63.40
19060;DHT22;9663;48.996;8.334;2023-08-20T03:52:00;24.30;63.50
19060;DHT22;9663;48.996;8.334;2023-08-20T03:54:29;24.30;63.70
19060;DHT22;9663;48.996;8.334;2023-08-20T03:56:55;24.30;63.80
19060;DHT22;9663;48.996;8.334;2023-08-20T03:59:21;24.30;63.90
19060;DHT22;9663;48.996;8.334;2023-08-20T04:01:47;24.30;64.00
19060;DHT22;9663;48.996;8.334;2023-08-20T04:04:12;24.30;64.00
19060;DHT22;9663;48.996;8.334;2023-08-20T04:06:38;24.30;64.10
19060;DHT22;9663;48.996;8.334;2023-08-20T04:09:04;24.30;64.10
19060;DHT22;9663;48.996;8.334;2023-08-20T04:11:31;24.40;64.10
19060;DHT22;9663;48.996;8.334;2023-08-20T04:13:56;24.40;64.20
19060;DHT22;9663;48.996;8.334;2023-08-20T04:16:22;24.40;64.30
19060;DHT22;9663;48.996;8.334;2023-08-20T04:18:47;24.40;64.30
19060;DHT22;9663;48.996;8.334;2023-08-20T04:21:13;24.50;64.30
19060;DHT22;9663;48.996;8.334;2023-08-20T04:23:40;24.50;64.30
19060;DHT22;9663;48.996;8.334;2023-08-20T04:26:07;24.50;64.30
19060;DHT22;9663;48.996;8.334;2023-08-20T04:28:33;24.50;64.10
19060;DHT22;9663;48.996;8.334;2023-08-20T04:30:58;24.50;64.20
19060;DHT22;9663;48.996;8.334;2023-08-20T04:33:25;24.50;64.20
19060;DHT22;9663;48.996;8.334;2023-08-20T04:35:51;24.50;64.30
19060;DHT22;9663;48.996;8.334;2023-08-20T04:38:17;24.50;64.20
19060;DHT22;9663;48.996;8.334;2023-08-20T04:40:46;24.50;64.20
19060;DHT22;9663;48.996;8.334;2023-08-20T04:43:13;24.50;64.30
19060;DHT22;9663;48.996;8.334;2023-08-20T04:45:38;24.40;64.10
19060;DHT22;9663;48.996;8.334;2023-08-20T04:48:04;24.40;64.30
19060;DHT22;9663;48.996;8.334;2023-08-20T04:50:30;24.40;64.30
19060;DHT22;9663;48.996;8.334;2023-08-20T04:52:56;24.40;64.40
19060;DHT22;9663;48.996;8.334;2023-08-20T04:55:24;24.50;64.50
19060;DHT22;9663;48.996;8.334;2023-08-20T04:57:49;24.50;64.60
19060;DHT22;9663;48.996;8.334;2023-08-20T05:00:15;24.50;64.60
19060;DHT22;9663;48.996;8.334;2023-08-20T05:02:41;24.50;64.60
19060;DHT22;9663;48.996;8.334;2023-08-20T05:05:07;24.50;64.60
19060;DHT22;9663;48.996;8.334;2023-08-20T05:07:33;24.60;64.60
19060;DHT22;9663;48.996;8.334;2023-08-20T05:09:58;24.60;64.60
19060;DHT22;9663;48.996;8.334;2023-08-20T05:12:24;24.60;64.60
19060;DHT22;9663;48.996;8.334;2023-08-20T05:14:50;24.60;64.60
19060;DHT22;9663;48.996;8.334;2023-08-20T05:17:16;24.60;64.60
19060;DHT22;9663;48.996;8.334;2023-08-20T05:19:41;24.70;64.80
19060;DHT22;9663;48.996;8.334;2023-08-20T05:22:07;24.70;64.80
19060;DHT22;9663;48.996;8.334;2023-08-20T05:24:33;24.80;65.00
19060;DHT22;9663;48.996;8.334;2023-08-20T05:29:39;25.00;65.50
19060;DHT22;9663;48.996;8.334;2023-08-20T05:32:06;25.10;65.20
19060;DHT22;9663;48.996;8.334;2023-08-20T05:34:32;25.20;65.20
19060;DHT22;9663;48.996;8.334;2023-08-20T05:36:59;25.40;65.30
19060;DHT22;9663;48.996;8.334;2023-08-20T05:39:25;25.40;65.10
19060;DHT22;9663;48.996;8.334;2023-08-20T05:41:54;25.60;65.20
19060;DHT22;9663;48.996;8.334;2023-08-20T05:44:21;25.70;65.10
19060;DHT22;9663;48.996;8.334;2023-08-20T05:46:47;25.70;64.90
19060;DHT22;9663;48.996;8.334;2023-08-20T05:49:14;25.80;64.90
19060;DHT22;9663;48.996;8.334;2023-08-20T05:51:43;25.90;64.90
19060;DHT22;9663;48.996;8.334;2023-08-20T05:54:09;25.90;64.80
19060;DHT22;9663;48.996;8.334;2023-08-20T05:56:35;26.00;64.80
19060;DHT22;9663;48.996;8.334;2023-08-20T05:59:01;26.10;64.80
19060;DHT22;9663;48.996;8.334;2023-08-20T06:01:27;26.10;64.80
19060;DHT22;9663;48.996;8.334;2023-08-20T06:03:52;26.10;64.70
19060;DHT22;9663;48.996;8.334;2023-08-20T06:06:18;26.20;64.70
19060;DHT22;9663;48.996;8.334;2023-08-20T06:08:44;26.20;64.60
19060;DHT22;9663;48.996;8.334;2023-08-20T06:11:10;26.20;64.60
19060;DHT22;9663;48.996;8.334;2023-08-20T06:13:35;26.20;64.60
19060;DHT22;9663;48.996;8.334;2023-08-20T06:16:01;26.20;64.60
19060;DHT22;9663;48.996;8.334;2023-08-20T06:18:27;26.20;64.60
19060;DHT22;9663;48.996;8.334;2023-08-20T06:20:52;26.30;64.60
19060;DHT22;9663;48.996;8.334;2023-08-20T06:23:18;26.30;64.60
19060;DHT22;9663;48.996;8.334;2023-08-20T06:25:44;26.30;64.60
19060;DHT22;9663;48.996;8.334;2023-08-20T06:28:10;26.50;64.70
19060;DHT22;9663;48.996;8.334;2023-08-20T06:30:36;26.50;64.70
19060;DHT22;9663;48.996;8.334;2023-08-20T06:33:01;26.60;64.60
19060;DHT22;9663;48.996;8.334;2023-08-20T06:35:27;26.70;64.60
19060;DHT22;9663;48.996;8.334;2023-08-20T06:37:53;26.70;64.40
19060;DHT22;9663;48.996;8.334;2023-08-20T06:40:21;26.90;64.60
19060;DHT22;9663;48.996;8.334;2023-08-20T06:42:47;27.00;64.60
19060;DHT22;9663;48.996;8.334;2023-08-20T06:45:13;27.10;64.30
19060;DHT22;9663;48.996;8.334;2023-08-20T06:47:42;27.30;64.10
19060;DHT22;9663;48.996;8.334;2023-08-20T06:50:08;27.50;63.80
19060;DHT22;9663;48.996;8.334;2023-08-20T06:52:34;27.60;63.60
19060;DHT22;9663;48.996;8.334;2023-08-20T06:55:00;27.80;63.30
19060;DHT22;9663;48.996;8.334;2023-08-20T06:57:26;27.90;62.90
19060;DHT22;9663;48.996;8.334;2023-08-20T06:59:52;28.00;62.60
19060;DHT22;9663;48.996;8.334;2023-08-20T07:02:17;28.10;62.50
19060;DHT22;9663;48.996;8.334;2023-08-20T07:04:43;28.20;62.30
19060;DHT22;9663;48.996;8.334;2023-08-20T07:07:09;28.20;61.90
19060;DHT22;9663;48.996;8.334;2023-08-20T07:09:35;28.20;61.80
19060;DHT22;9663;48.996;8.334;2023-08-20T07:12:01;28.30;61.70
19060;DHT22;9663;48.996;8.334;2023-08-20T07:14:27;28.30;61.70
19060;DHT22;9663;48.996;8.334;2023-08-20T07:16:54;28.30;61.50
19060;DHT22;9663;48.996;8.334;2023-08-20T07:19:19;28.30;61.20
19060;DHT22;9663;48.996;8.334;2023-08-20T07:21:45;28.30;61.10
19060;DHT22;9663;48.996;8.334;2023-08-20T07:24:13;28.30;61.20
19060;DHT22;9663;48.996;8.334;2023-08-20T07:26:39;28.40;61.40
19060;DHT22;9663;48.996;8.334;2023-08-20T07:29:05;28.50;61.50
19060;DHT22;9663;48.996;8.334;2023-08-20T07:31:32;28.50;61.50
19060;DHT22;9663;48.996;8.334;2023-08-20T07:34:01;28.60;61.30
19060;DHT22;9663;48.996;8.334;2023-08-20T07:36:28;28.70;61.00
19060;DHT22;9663;48.996;8.334;2023-08-20T07:38:54;28.80;60.90
19060;DHT22;9663;48.996;8.334;2023-08-20T07:41:21;28.90;60.80
19060;DHT22;9663;48.996;8.334;2023-08-20T07:43:48;28.90;60.60
19060;DHT22;9663;48.996;8.334;2023-08-20T07:46:15;29.00;60.50
19060;DHT22;9663;48.996;8.334;2023-08-20T07:48:41;29.10;60.50
19060;DHT22;9663;48.996;8.334;2023-08-20T07:51:07;29.10;60.50
19060;DHT22;9663;48.996;8.334;2023-08-20T07:53:33;29.30;60.50
19060;DHT22;9663;48.996;8.334;2023-08-20T07:56:00;29.30;60.20
19060;DHT22;9663;48.996;8.334;2023-08-20T07:58:27;29.40;60.00
19060;DHT22;9663;48.996;8.334;2023-08-20T08:00:54;29.50;60.00
19060;DHT22;9663;48.996;8.334;2023-08-20T08:03:20;29.50;59.90
19060;DHT22;9663;48.996;8.334;2023-08-20T08:05:47;29.60;59.90
19060;DHT22;9663;48.996;8.334;2023-08-20T08:08:14;29.70;60.50
19060;DHT22;9663;48.996;8.334;2023-08-20T08:10:41;29.70;59.70
19060;DHT22;9663;48.996;8.334;2023-08-20T08:13:10;29.80;59.70
19060;DHT22;9663;48.996;8.334;2023-08-20T08:15:36;29.80;59.70
19060;DHT22;9663;48.996;8.334;2023-08-20T08:18:02;30.00;59.60
19060;DHT22;9663;48.996;8.334;2023-08-20T08:20:28;30.10;59.50
19060;DHT22;9663;48.996;8.334;2023-08-20T08:22:54;30.10;59.40
19060;DHT22;9663;48.996;8.334;2023-08-20T08:25:20;30.20;59.20
19060;DHT22;9663;48.996;8.334;2023-08-20T08:27:45;30.30;59.10
19060;DHT22;9663;48.996;8.334;2023-08-20T08:30:11;30.40;59.10
19060;DHT22;9663;48.996;8.334;2023-08-20T08:32:37;30.50;58.90
19060;DHT22;9663;48.996;8.334;2023-08-20T08:35:03;30.50;58.70
19060;DHT22;9663;48.996;8.334;2023-08-20T08:37:29;30.60;59.30
19060;DHT22;9663;48.996;8.334;2023-08-20T08:39:54;30.60;58.50
19060;DHT22;9663;48.996;8.334;2023-08-20T08:42:22;30.70;58.70
19060;DHT22;9663;48.996;8.334;2023-08-20T08:44:50;30.80;58.60
19060;DHT22;9663;48.996;8.334;2023-08-20T08:47:17;30.80;58.40
19060;DHT22;9663;48.996;8.334;2023-08-20T08:49:45;30.90;58.20
19060;DHT22;9663;48.996;8.334;2023-08-20T08:52:12;31.00;58.20
19060;DHT22;9663;48.996;8.334;2023-08-20T08:54:38;31.10;58.10
19060;DHT22;9663;48.996;8.334;2023-08-20T08:57:04;31.10;58.00
19060;DHT22;9663;48.996;8.334;2023-08-20T08:59:31;31.20;57.90
19060;DHT22;9663;48.996;8.334;2023-08-20T09:01:57;31.30;57.90
19060;DHT22;9663;48.996;8.334;2023-08-20T09:04:23;31.30;57.70
19060;DHT22;9663;48.996;8.334;2023-08-20T09:06:51;31.40;57.60
19060;DHT22;9663;48.996;8.334;2023-08-20T09:09:18;31.50;57.60
19060;DHT22;9663;48.996;8.334;2023-08-20T09:11:45;31.50;57.30
19060;DHT22;9663;48.996;8.334;2023-08-20T09:14:23;31.60;57.10
19060;DHT22;9663;48.996;8.334;2023-08-20T09:17:01;31.60;56.50
19060;DHT22;9663;48.996;8.334;2023-08-20T09:19:35;31.70;56.90
19060;DHT22;9663;48.996;8.334;2023-08-20T09:22:03;31.70;56.70
19060;DHT22;9663;48.996;8.334;2023-08-20T09:27:09;31.90;56.60
19060;DHT22;9663;48.996;8.334;2023-08-20T09:29:54;32.00;56.70
19060;DHT22;9663;48.996;8.334;2023-08-20T09:32:23;32.10;55.80
19060;DHT22;9663;48.996;8.334;2023-08-20T09:34:51;32.20;56.50
19060;DHT22;9663;48.996;8.334;2023-08-20T09:37:20;32.20;56.30
19060;DHT22;9663;48.996;8.334;2023-08-20T09:39:47;32.30;56.10
19060;DHT22;9663;48.996;8.334;2023-08-20T09:42:14;32.30;56.00
19060;DHT22;9663;48.996;8.334;2023-08-20T09:44:42;32.40;55.90
19060;DHT22;9663;48.996;8.334;2023-08-20T09:47:12;32.40;55.80
19060;DHT22;9663;48.996;8.334;2023-08-20T09:49:40;32.50;55.90
19060;DHT22;9663;48.996;8.334;2023-08-20T09:52:09;32.60;55.90
19060;DHT22;9663;48.996;8.334;2023-08-20T09:57:12;32.70;55.60
19060;DHT22;9663;48.996;8.334;2023-08-20T09:59:47;32.80;55.10
19060;DHT22;9663;48.996;8.334;2023-08-20T10:02:15;32.90;55.50
19060;DHT22;9663;48.996;8.334;2023-08-20T10:04:43;33.00;55.30
19060;DHT22;9663;48.996;8.334;2023-08-20T10:07:10;33.10;55.00
19060;DHT22;9663;48.996;8.334;2023-08-20T10:09:38;33.10;54.80
19060;DHT22;9663;48.996;8.334;2023-08-20T10:12:04;33.20;54.80
19060;DHT22;9663;48.996;8.334;2023-08-20T10:14:30;33.20;54.70
19060;DHT22;9663;48.996;8.334;2023-08-20T10:16:56;33.30;54.60
19060;DHT22;9663;48.996;8.334;2023-08-20T10:19:23;33.40;54.50
19060;DHT22;9663;48.996;8.334;2023-08-20T10:21:52;33.40;54.40
19060;DHT22;9663;48.996;8.334;2023-08-20T10:24:18;33.50;54.30
19060;DHT22;9663;48.996;8.334;2023-08-20T10:26:47;33.60;54.50
19060;DHT22;9663;48.996;8.334;2023-08-20T10:29:36;33.80;54.60
19060;DHT22;9663;48.996;8.334;2023-08-20T10:32:11;34.00;53.80
19060;DHT22;9663;48.996;8.334;2023-08-20T10:34:39;34.10;53.80
19060;DHT22;9663;48.996;8.334;2023-08-20T10:37:12;34.30;53.70
19060;DHT22;9663;48.996;8.334;2023-08-20T10:39:41;34.50;53.10
19060;DHT22;9663;48.996;8.334;2023-08-20T10:45:07;34.70;53.20
19060;DHT22;9663;48.996;8.334;2023-08-20T10:47:48;34.80;52.40
19060;DHT22;9663;48.996;8.334;2023-08-20T10:50:17;35.00;52.50
19060;DHT22;9663;48.996;8.334;2023-08-20T10:52:49;35.10;53.00
19060;DHT22;9663;48.996;8.334;2023-08-20T10:55:23;35.30;52.30
19060;DHT22;9663;48.996;8.334;2023-08-20T10:57:55;35.40;52.10
19060;DHT22;9663;48.996;8.334;2023-08-20T11:00:22;35.60;51.80
19060;DHT22;9663;48.996;8.334;2023-08-20T11:02:49;35.70;52.10
19060;DHT22;9663;48.996;8.334;2023-08-20T11:05:20;35.80;51.90
19060;DHT22;9663;48.996;8.334;2023-08-20T11:07:50;35.90;51.00
19060;DHT22;9663;48.996;8.334;2023-08-20T11:10:16;36.00;51.00
19060;DHT22;9663;48.996;8.334;2023-08-20T11:12:45;36.00;51.40
19060;DHT22;9663;48.996;8.334;2023-08-20T11:15:11;36.10;50.30
19060;DHT22;9663;48.996;8.334;2023-08-20T11:17:47;36.20;50.30
19060;DHT22;9663;48.996;8.334;2023-08-20T11:20:16;36.30;49.70
19060;DHT22;9663;48.996;8.334;2023-08-20T11:22:42;36.50;50.10
19060;DHT22;9663;48.996;8.334;2023-08-20T11:25:12;36.60;50.30
19060;DHT22;9663;48.996;8.334;2023-08-20T11:27:42;36.80;49.70
19060;DHT22;9663;48.996;8.334;2023-08-20T11:30:09;37.10;49.20
19060;DHT22;9663;48.996;8.334;2023-08-20T11:32:37;37.60;49.60
19060;DHT22;9663;48.996;8.334;2023-08-20T11:35:04;38.10;49.10
19060;DHT22;9663;48.996;8.334;2023-08-20T11:37:32;38.70;48.50
19060;DHT22;9663;48.996;8.334;2023-08-20T11:39:58;39.50;48.20
19060;DHT22;9663;48.996;8.334;2023-08-20T11:42:24;40.10;47.70
19060;DHT22;9663;48.996;8.334;2023-08-20T11:44:50;40.80;46.60
19060;DHT22;9663;48.996;8.334;2023-08-20T11:47:16;41.30;45.60
19060;DHT22;9663;48.996;8.334;2023-08-20T11:49:43;41.70;44.60
19060;DHT22;9663;48.996;8.334;2023-08-20T11:52:09;42.00;44.40
19060;DHT22;9663;48.996;8.334;2023-08-20T11:54:35;42.50;44.30
19060;DHT22;9663;48.996;8.334;2023-08-20T11:57:06;43.00;43.60
19060;DHT22;9663;48.996;8.334;2023-08-20T11:59:33;43.50;42.00
19060;DHT22;9663;48.996;8.334;2023-08-20T12:02:01;44.00;42.10
19060;DHT22;9663;48.996;8.334;2023-08-20T12:04:31;44.40;40.90
19060;DHT22;9663;48.996;8.334;2023-08-20T12:07:25;44.70;40.60
19060;DHT22;9663;48.996;8.334;2023-08-20T12:09:50;45.00;38.00
19060;DHT22;9663;48.996;8.334;2023-08-20T12:12:19;45.40;39.40
19060;DHT22;9663;48.996;8.334;2023-08-20T12:14:46;45.70;38.30
19060;DHT22;9663;48.996;8.334;2023-08-20T12:17:16;46.10;38.80
19060;DHT22;9663;48.996;8.334;2023-08-20T12:19:42;46.40;37.70
19060;DHT22;9663;48.996;8.334;2023-08-20T12:22:08;46.80;36.90
19060;DHT22;9663;48.996;8.334;2023-08-20T12:24:34;47.10;37.10
19060;DHT22;9663;48.996;8.334;2023-08-20T12:26:59;47.20;35.70
19060;DHT22;9663;48.996;8.334;2023-08-20T12:29:25;47.20;34.80
19060;DHT22;9663;48.996;8.334;2023-08-20T12:31:51;47.10;34.30
19060;DHT22;9663;48.996;8.334;2023-08-20T12:34:17;46.90;33.80
19060;DHT22;9663;48.996;8.334;2023-08-20T12:36:42;46.50;33.40
19060;DHT22;9663;48.996;8.334;2023-08-20T12:39:08;46.10;34.30
19060;DHT22;9663;48.996;8.334;2023-08-20T12:41:34;45.90;34.00
19060;DHT22;9663;48.996;8.334;2023-08-20T12:44:04;45.90;34.30
19060;DHT22;9663;48.996;8.334;2023-08-20T12:46:30;46.10;33.90
19060;DHT22;9663;48.996;8.334;2023-08-20T12:48:55;46.20;33.90
19060;DHT22;9663;48.996;8.334;2023-08-20T12:51:21;46.20;33.30
19060;DHT22;9663;48.996;8.334;2023-08-20T12:53:48;46.20;32.60
19060;DHT22;9663;48.996;8.334;2023-08-20T12:56:14;46.20;32.70
19060;DHT22;9663;48.996;8.334;2023-08-20T12:58:41;46.30;32.50
19060;DHT22;9663;48.996;8.334;2023-08-20T13:01:07;46.40;32.30
19060;DHT22;9663;48.996;8.334;2023-08-20T13:03:33;46.50;32.10
19060;DHT22;9663;48.996;8.334;2023-08-20T13:05:59;46.50;31.90
19060;DHT22;9663;48.996;8.334;2023-08-20T13:08:25;46.40;31.40
19060;DHT22;9663;48.996;8.334;2023-08-20T13:10:56;46.30;31.00
19060;DHT22;9663;48.996;8.334;2023-08-20T13:13:23;46.20;30.50
19060;DHT22;9663;48.996;8.334;2023-08-20T13:15:53;46.20;31.20
19060;DHT22;9663;48.996;8.334;2023-08-20T13:18:20;46.20;30.70
19060;DHT22;9663;48.996;8.334;2023-08-20T13:20:51;46.30;30.60
19060;DHT22;9663;48.996;8.334;2023-08-20T13:23:18;46.20;30.40
19060;DHT22;9663;48.996;8.334;2023-08-20T13:25:43;46.20;30.50
19060;DHT22;9663;48.996;8.334;2023-08-20T13:28:09;46.10;30.30
19060;DHT22;9663;48.996;8.334;2023-08-20T13:30:35;46.10;30.30
19060;DHT22;9663;48.996;8.334;2023-08-20T13:33:00;46.20;30.20
19060;DHT22;9663;48.996;8.334;2023-08-20T13:35:26;46.30;30.00
19060;DHT22;9663;48.996;8.334;2023-08-20T13:37:52;46.40;29.80
19060;DHT22;9663;48.996;8.334;2023-08-20T13:40:18;46.50;30.00
19060;DHT22;9663;48.996;8.334;2023-08-20T13:42:43;46.30;29.30
19060;DHT22;9663;48.996;8.334;2023-08-20T13:45:09;46.20;29.40
19060;DHT22;9663;48.996;8.334;2023-08-20T13:47:35;46.00;29.50
19060;DHT22;9663;48.996;8.334;2023-08-20T13:50:01;45.60;29.40
19060;DHT22;9663;48.996;8.334;2023-08-20T13:52:28;45.30;29.40
19060;DHT22;9663;48.996;8.334;2023-08-20T13:54:54;45.00;29.60
19060;DHT22;9663;48.996;8.334;2023-08-20T13:57:20;44.90;29.80
19060;DHT22;9663;48.996;8.334;2023-08-20T13:59:45;44.80;29.70
19060;DHT22;9663;48.996;8.334;2023-08-20T14:02:11;44.60;29.40
19060;DHT22;9663;48.996;8.334;2023-08-20T14:04:37;44.30;29.40
19060;DHT22;9663;48.996;8.334;2023-08-20T14:07:03;44.10;29.50
19060;DHT22;9663;48.996;8.334;2023-08-20T14:09:28;44.00;29.70
19060;DHT22;9663;48.996;8.334;2023-08-20T14:11:54;44.20;29.70
19060;DHT22;9663;48.996;8.334;2023-08-20T14:14:20;44.40;29.40
19060;DHT22;9663;48.996;8.334;2023-08-20T14:16:46;44.50;29.50
19060;DHT22;9663;48.996;8.334;2023-08-20T14:19:11;44.90;29.60
19060;DHT22;9663;48.996;8.334;2023-08-20T14:21:37;45.20;29.30
19060;DHT22;9663;48.996;8.334;2023-08-20T14:24:03;45.50;29.00
19060;DHT22;9663;48.996;8.334;2023-08-20T14:26:29;45.90;28.80
19060;DHT22;9663;48.996;8.334;2023-08-20T14:28:55;46.10;28.30
19060;DHT22;9663;48.996;8.334;2023-08-20T14:31:20;46.30;28.20
19060;DHT22;9663;48.996;8.334;2023-08-20T14:33:46;46.50;28.30
19060;DHT22;9663;48.996;8.334;2023-08-20T14:36:12;46.80;28.20
19060;DHT22;9663;48.996;8.334;2023-08-20T14:38:37;47.10;28.00
19060;DHT22;9663;48.996;8.334;2023-08-20T14:41:03;47.30;27.90
19060;DHT22;9663;48.996;8.334;2023-08-20T14:43:29;47.60;27.20
19060;DHT22;9663;48.996;8.334;2023-08-20T14:45:56;47.80;26.90
19060;DHT22;9663;48.996;8.334;2023-08-20T14:48:22;48.00;26.60
19060;DHT22;9663;48.996;8.334;2023-08-20T14:50:51;48.10;26.50
19060;DHT22;9663;48.996;8.334;2023-08-20T14:53:17;48.20;26.30
19060;DHT22;9663;48.996;8.334;2023-08-20T14:55:44;48.40;26.10
19060;DHT22;9663;48.996;8.334;2023-08-20T14:58:10;48.60;25.90
19060;DHT22;9663;48.996;8.334;2023-08-20T15:00:36;48.80;25.80
19060;DHT22;9663;48.996;8.334;2023-08-20T15:03:02;49.10;25.70
19060;DHT22;9663;48.996;8.334;2023-08-20T15:05:34;49.20;25.40
19060;DHT22;9663;48.996;8.334;2023-08-20T15:08:00;49.30;25.30
19060;DHT22;9663;48.996;8.334;2023-08-20T15:10:26;49.50;25.30
19060;DHT22;9663;48.996;8.334;2023-08-20T15:12:51;49.80;25.10
19060;DHT22;9663;48.996;8.334;2023-08-20T15:15:17;50.00;25.00
19060;DHT22;9663;48.996;8.334;2023-08-20T15:17:43;50.20;25.00
19060;DHT22;9663;48.996;8.334;2023-08-20T15:20:09;50.50;24.90
19060;DHT22;9663;48.996;8.334;2023-08-20T15:22:38;50.60;24.60
19060;DHT22;9663;48.996;8.334;2023-08-20T15:25:05;50.90;24.30
19060;DHT22;9663;48.996;8.334;2023-08-20T15:27:35;51.00;23.90
19060;DHT22;9663;48.996;8.334;2023-08-20T15:30:01;51.20;23.80
19060;DHT22;9663;48.996;8.334;2023-08-20T15:32:29;51.30;23.50
19060;DHT22;9663;48.996;8.334;2023-08-20T15:34:55;51.50;23.30
19060;DHT22;9663;48.996;8.334;2023-08-20T15:37:21;51.50;23.10
19060;DHT22;9663;48.996;8.334;2023-08-20T15:39:47;51.60;23.00
19060;DHT22;9663;48.996;8.334;2023-08-20T15:42:13;51.60;22.80
19060;DHT22;9663;48.996;8.334;2023-08-20T15:44:39;51.70;22.70
19060;DHT22;9663;48.996;8.334;2023-08-20T15:47:06;51.80;22.60
19060;DHT22;9663;48.996;8.334;2023-08-20T15:49:32;51.80;22.40
19060;DHT22;9663;48.996;8.334;2023-08-20T15:51:59;51.80;22.20
19060;DHT22;9663;48.996;8.334;2023-08-20T15:54:25;51.80;22.20
19060;DHT22;9663;48.996;8.334;2023-08-20T15:56:51;51.80;22.60
19060;DHT22;9663;48.996;8.334;2023-08-20T15:59:17;51.90;22.30
19060;DHT22;9663;48.996;8.334;2023-08-20T16:01:43;51.80;21.80